Sct Santiago — V7NF7 — position and weather

sailwx.info

Track history (hours):
 
Tides and Currents Weather Stations Pressure Air Temp Water Temp Dewpoint Dewpoint Depression Visibility Wind Speed Wind Dir Waves Ship Positions

Sct Santiago

Last reported at 2016-Jul-19 02:32 UTC. Time now 2016-Jul-31 09:30 UTC.
Position N 22°20' E 114°05'.
Warning: this ship's position is 12 days out of date.

; draft 7.2 m.

Type: Cargo ship. MMSI: 538002953.

Date/timePositionNaut miles runAvg speedWind from/ knotsBaromVisibWave heightAir tempDewpointWater temp
2016-Jul-19 02:32N 22°20' E 114°05'1111.0
2016-Jul-19 01:33N 22°23' E 113°54'6 0.3
2016-Jul-18 06:31N 22°29' E 113°52'5 5.2
2016-Jul-18 05:33N 22°24' E 113°54'11 8.1
2016-Jul-18 04:12N 22°20' E 114°05'  
2016-Jul-14 11:18N 01°15' E 104°08'1417.8
2016-Jul-14 10:31N 01°13' E 103°54'8 8.2
2016-Jul-14 09:33N 01°15' E 103°47'1 0.5
2016-Jul-14 08:25N 01°16' E 103°47'0 0.1
2016-Jul-14 07:31N 01°16' E 103°47'0 0.0
2016-Jul-14 04:13N 01°16' E 103°47'0 0.0
2016-Jul-14 02:22N 01°16' E 103°47'0 0.0
2016-Jul-14 01:22N 01°16' E 103°47'0 0.0
2016-Jul-14 00:20N 01°16' E 103°47'3 3.3
2016-Jul-13 23:33N 01°15' E 103°44'9 8.1
2016-Jul-13 22:25N 01°11' E 103°36'6112.3
2016-Jul-13 17:29N 01°40' E 102°42'1716.4
2016-Jul-13 16:27N 01°47' E 102°27'  
Track history (hours):
 
Tides and Currents Weather Stations Pressure Air Temp Water Temp Dewpoint Dewpoint Depression Visibility Wind Speed Wind Dir Waves Ship Positions

Sct Santiago

Last reported at 2016-Jul-19 02:32 UTC. Time now 2016-Jul-31 09:30 UTC.
Position N 22°20' E 114°05'.
Warning: this ship's position is 12 days out of date.

; draft 7.2 m.

Type: Cargo ship. MMSI: 538002953.

Date/timePositionNaut miles runAvg speedWind from/ knotsBaromVisibWave heightAir tempDewpointWater temp
2016-Jul-19 02:32N 22°20' E 114°05'1111.0
2016-Jul-19 01:33N 22°23' E 113°54'6 0.3
2016-Jul-18 06:31N 22°29' E 113°52'5 5.2
2016-Jul-18 05:33N 22°24' E 113°54'11 8.1
2016-Jul-18 04:12N 22°20' E 114°05'  
2016-Jul-14 11:18N 01°15' E 104°08'1417.8
2016-Jul-14 10:31N 01°13' E 103°54'8 8.2
2016-Jul-14 09:33N 01°15' E 103°47'1 0.5
2016-Jul-14 08:25N 01°16' E 103°47'0 0.1
2016-Jul-14 07:31N 01°16' E 103°47'0 0.0
2016-Jul-14 04:13N 01°16' E 103°47'0 0.0
2016-Jul-14 02:22N 01°16' E 103°47'0 0.0
2016-Jul-14 01:22N 01°16' E 103°47'0 0.0
2016-Jul-14 00:20N 01°16' E 103°47'3 3.3
2016-Jul-13 23:33N 01°15' E 103°44'9 8.1
2016-Jul-13 22:25N 01°11' E 103°36'6112.3
2016-Jul-13 17:29N 01°40' E 102°42'1716.4
2016-Jul-13 16:27N 01°47' E 102°27'  

Dump ship's entire track history